<?xml version="1.0" encoding="UTF-8" standalone="no" ?>
<gpx xmlns="http://www.topografix.com/GPX/1/1" xmlns:xsi="http://www.w3.org/2001/XMLSchema-instance" xsi:schemaLocation="http://www.topografix.com/GPX/1/1 http://www.topografix.com/GPX/1/1/gpx.xsd" version="1.1" creator="VisuGPX - https://www.visugpx.com">
  <metadata>
    <name>Vacances 2021</name>
  </metadata>
  <trk>
    <name><![CDATA[Journal actif: 2021-07-25 12:08]]></name>
    <trkseg>
      <trkpt lat="49.20366" lon="5.07269">
        <ele>227.97</ele>
        <time>2021-07-25T14:08:41Z</time>
      </trkpt>
      <trkpt lat="49.20354" lon="5.07229">
        <ele>228.45</ele>
        <time>2021-07-25T14:08:50Z</time>
      </trkpt>
      <trkpt lat="49.20338" lon="5.0718">
        <ele>229.89</ele>
        <time>2021-07-25T14:08:59Z</time>
      </trkpt>
      <trkpt lat="49.20337" lon="5.07174">
        <ele>230.37</ele>
        <time>2021-07-25T14:09:00Z</time>
      </trkpt>
      <trkpt lat="49.20335" lon="5.07169">
        <ele>230.37</ele>
        <time>2021-07-25T14:09:01Z</time>
      </trkpt>
      <trkpt lat="49.20334" lon="5.07167">
        <ele>230.85</ele>
        <time>2021-07-25T14:09:02Z</time>
      </trkpt>
      <trkpt lat="49.20347" lon="5.07154">
        <ele>230.85</ele>
        <time>2021-07-25T14:09:03Z</time>
      </trkpt>
      <trkpt lat="49.20347" lon="5.07151">
        <ele>230.85</ele>
        <time>2021-07-25T14:09:04Z</time>
      </trkpt>
      <trkpt lat="49.20345" lon="5.07144">
        <ele>230.85</ele>
        <time>2021-07-25T14:09:12Z</time>
      </trkpt>
      <trkpt lat="49.20345" lon="5.0714">
        <ele>231.33</ele>
        <time>2021-07-25T14:09:13Z</time>
      </trkpt>
      <trkpt lat="49.20344" lon="5.07136">
        <ele>231.33</ele>
        <time>2021-07-25T14:09:14Z</time>
      </trkpt>
      <trkpt lat="49.20343" lon="5.07131">
        <ele>231.81</ele>
        <time>2021-07-25T14:09:15Z</time>
      </trkpt>
      <trkpt lat="49.20342" lon="5.07124">
        <ele>231.81</ele>
        <time>2021-07-25T14:09:16Z</time>
      </trkpt>
      <trkpt lat="49.20341" lon="5.07117">
        <ele>231.81</ele>
        <time>2021-07-25T14:09:17Z</time>
      </trkpt>
      <trkpt lat="49.20325" lon="5.07027">
        <ele>235.66</ele>
        <time>2021-07-25T14:09:27Z</time>
      </trkpt>
      <trkpt lat="49.20307" lon="5.06922">
        <ele>241.91</ele>
        <time>2021-07-25T14:09:37Z</time>
      </trkpt>
      <trkpt lat="49.20278" lon="5.0677">
        <ele>248.16</ele>
        <time>2021-07-25T14:09:48Z</time>
      </trkpt>
      <trkpt lat="49.20273" lon="5.06753">
        <ele>249.12</ele>
        <time>2021-07-25T14:09:50Z</time>
      </trkpt>
      <trkpt lat="49.20271" lon="5.06747">
        <ele>249.12</ele>
        <time>2021-07-25T14:09:51Z</time>
      </trkpt>
      <trkpt lat="49.20269" lon="5.06742">
        <ele>249.6</ele>
        <time>2021-07-25T14:09:52Z</time>
      </trkpt>
      <trkpt lat="49.20271" lon="5.06736">
        <ele>250.08</ele>
        <time>2021-07-25T14:09:53Z</time>
      </trkpt>
      <trkpt lat="49.20274" lon="5.06734">
        <ele>249.6</ele>
        <time>2021-07-25T14:09:54Z</time>
      </trkpt>
      <trkpt lat="49.20277" lon="5.06735">
        <ele>249.6</ele>
        <time>2021-07-25T14:09:55Z</time>
      </trkpt>
      <trkpt lat="49.2028" lon="5.06736">
        <ele>249.6</ele>
        <time>2021-07-25T14:09:56Z</time>
      </trkpt>
      <trkpt lat="49.20284" lon="5.06738">
        <ele>249.6</ele>
        <time>2021-07-25T14:09:57Z</time>
      </trkpt>
      <trkpt lat="49.20288" lon="5.06741">
        <ele>249.12</ele>
        <time>2021-07-25T14:09:58Z</time>
      </trkpt>
      <trkpt lat="49.20349" lon="5.0677">
        <ele>248.64</ele>
        <time>2021-07-25T14:10:08Z</time>
      </trkpt>
      <trkpt lat="49.20385" lon="5.06792">
        <ele>250.08</ele>
        <time>2021-07-25T14:10:18Z</time>
      </trkpt>
      <trkpt lat="49.20407" lon="5.06812">
        <ele>251.04</ele>
        <time>2021-07-25T14:10:30Z</time>
      </trkpt>
      <trkpt lat="49.20407" lon="5.06812">
        <ele>251.52</ele>
        <time>2021-07-25T14:13:44Z</time>
      </trkpt>
      <trkpt lat="49.20407" lon="5.06812">
        <ele>252</ele>
        <time>2021-07-25T14:15:11Z</time>
      </trkpt>
      <trkpt lat="49.20407" lon="5.06812">
        <ele>252</ele>
        <time>2021-07-25T14:15:41Z</time>
      </trkpt>
      <trkpt lat="49.20407" lon="5.06812">
        <ele>251.52</ele>
        <time>2021-07-25T14:16:18Z</time>
      </trkpt>
      <trkpt lat="49.20407" lon="5.06812">
        <ele>251.52</ele>
        <time>2021-07-25T14:18:44Z</time>
      </trkpt>
      <trkpt lat="49.20407" lon="5.06812">
        <ele>252</ele>
        <time>2021-07-25T14:20:06Z</time>
      </trkpt>
      <trkpt lat="49.20407" lon="5.06812">
        <ele>252</ele>
        <time>2021-07-25T14:21:28Z</time>
      </trkpt>
      <trkpt lat="49.20407" lon="5.06812">
        <ele>252</ele>
        <time>2021-07-25T14:22:27Z</time>
      </trkpt>
      <trkpt lat="49.20407" lon="5.06812">
        <ele>252</ele>
        <time>2021-07-25T14:23:44Z</time>
      </trkpt>
      <trkpt lat="49.20407" lon="5.06812">
        <ele>252</ele>
        <time>2021-07-25T14:24:27Z</time>
      </trkpt>
      <trkpt lat="49.20407" lon="5.06812">
        <ele>251.04</ele>
        <time>2021-07-25T14:25:41Z</time>
      </trkpt>
      <trkpt lat="49.20407" lon="5.06812">
        <ele>250.56</ele>
        <time>2021-07-25T14:26:26Z</time>
      </trkpt>
      <trkpt lat="49.20407" lon="5.06812">
        <ele>251.04</ele>
        <time>2021-07-25T14:27:18Z</time>
      </trkpt>
      <trkpt lat="49.20407" lon="5.06812">
        <ele>251.52</ele>
        <time>2021-07-25T14:29:27Z</time>
      </trkpt>
      <trkpt lat="49.20407" lon="5.06812">
        <ele>251.52</ele>
        <time>2021-07-25T14:30:53Z</time>
      </trkpt>
      <trkpt lat="49.20407" lon="5.06812">
        <ele>251.52</ele>
        <time>2021-07-25T14:33:05Z</time>
      </trkpt>
      <trkpt lat="49.20407" lon="5.06812">
        <ele>251.52</ele>
        <time>2021-07-25T14:35:03Z</time>
      </trkpt>
      <trkpt lat="49.20407" lon="5.06812">
        <ele>251.52</ele>
        <time>2021-07-25T14:36:29Z</time>
      </trkpt>
      <trkpt lat="49.20407" lon="5.06812">
        <ele>251.52</ele>
        <time>2021-07-25T14:38:27Z</time>
      </trkpt>
      <trkpt lat="49.20407" lon="5.06812">
        <ele>252.48</ele>
        <time>2021-07-25T14:41:31Z</time>
      </trkpt>
      <trkpt lat="49.20407" lon="5.06812">
        <ele>252.48</ele>
        <time>2021-07-25T14:44:06Z</time>
      </trkpt>
      <trkpt lat="49.20407" lon="5.06812">
        <ele>252.96</ele>
        <time>2021-07-25T14:46:27Z</time>
      </trkpt>
      <trkpt lat="49.20407" lon="5.06812">
        <ele>252.96</ele>
        <time>2021-07-25T14:48:24Z</time>
      </trkpt>
      <trkpt lat="49.20407" lon="5.06812">
        <ele>252.96</ele>
        <time>2021-07-25T14:50:15Z</time>
      </trkpt>
      <trkpt lat="49.20407" lon="5.06812">
        <ele>252.96</ele>
        <time>2021-07-25T14:52:04Z</time>
      </trkpt>
      <trkpt lat="49.20407" lon="5.06812">
        <ele>252.96</ele>
        <time>2021-07-25T14:54:30Z</time>
      </trkpt>
      <trkpt lat="49.20407" lon="5.06812">
        <ele>253.44</ele>
        <time>2021-07-25T14:56:45Z</time>
      </trkpt>
      <trkpt lat="49.20407" lon="5.06812">
        <ele>253.44</ele>
        <time>2021-07-25T14:58:27Z</time>
      </trkpt>
      <trkpt lat="49.20407" lon="5.06812">
        <ele>253.44</ele>
        <time>2021-07-25T15:00:17Z</time>
      </trkpt>
      <trkpt lat="49.20407" lon="5.06812">
        <ele>253.44</ele>
        <time>2021-07-25T15:02:28Z</time>
      </trkpt>
      <trkpt lat="49.20407" lon="5.06812">
        <ele>253.44</ele>
        <time>2021-07-25T15:04:07Z</time>
      </trkpt>
      <trkpt lat="49.20407" lon="5.06812">
        <ele>253.44</ele>
        <time>2021-07-25T15:05:28Z</time>
      </trkpt>
      <trkpt lat="49.20407" lon="5.06812">
        <ele>253.44</ele>
        <time>2021-07-25T15:07:22Z</time>
      </trkpt>
      <trkpt lat="49.20407" lon="5.06812">
        <ele>253.44</ele>
        <time>2021-07-25T15:09:56Z</time>
      </trkpt>
      <trkpt lat="49.20407" lon="5.06812">
        <ele>253.44</ele>
        <time>2021-07-25T15:12:07Z</time>
      </trkpt>
      <trkpt lat="49.20407" lon="5.06812">
        <ele>252.96</ele>
        <time>2021-07-25T15:14:03Z</time>
      </trkpt>
      <trkpt lat="49.20407" lon="5.06812">
        <ele>252.96</ele>
        <time>2021-07-25T15:16:08Z</time>
      </trkpt>
      <trkpt lat="49.20407" lon="5.06812">
        <ele>252</ele>
        <time>2021-07-25T15:17:09Z</time>
      </trkpt>
      <trkpt lat="49.20407" lon="5.06812">
        <ele>251.04</ele>
        <time>2021-07-25T15:18:28Z</time>
      </trkpt>
      <trkpt lat="49.20407" lon="5.06812">
        <ele>251.04</ele>
        <time>2021-07-25T15:20:12Z</time>
      </trkpt>
      <trkpt lat="49.20407" lon="5.06812">
        <ele>251.52</ele>
        <time>2021-07-25T15:21:14Z</time>
      </trkpt>
      <trkpt lat="49.20407" lon="5.06812">
        <ele>252</ele>
        <time>2021-07-25T15:22:02Z</time>
      </trkpt>
      <trkpt lat="49.20407" lon="5.06812">
        <ele>252</ele>
        <time>2021-07-25T15:22:03Z</time>
      </trkpt>
      <trkpt lat="49.20414" lon="5.06819">
        <ele>252</ele>
        <time>2021-07-25T15:22:04Z</time>
      </trkpt>
      <trkpt lat="49.20414" lon="5.06819">
        <ele>252</ele>
        <time>2021-07-25T15:22:05Z</time>
      </trkpt>
      <trkpt lat="49.20415" lon="5.06819">
        <ele>252</ele>
        <time>2021-07-25T15:22:13Z</time>
      </trkpt>
      <trkpt lat="49.20413" lon="5.06818">
        <ele>252</ele>
        <time>2021-07-25T15:22:14Z</time>
      </trkpt>
      <trkpt lat="49.20413" lon="5.06818">
        <ele>252</ele>
        <time>2021-07-25T15:22:23Z</time>
      </trkpt>
      <trkpt lat="49.20408" lon="5.06813">
        <ele>252</ele>
        <time>2021-07-25T15:22:24Z</time>
      </trkpt>
      <trkpt lat="49.20406" lon="5.06811">
        <ele>252</ele>
        <time>2021-07-25T15:22:25Z</time>
      </trkpt>
      <trkpt lat="49.20395" lon="5.06801">
        <ele>251.04</ele>
        <time>2021-07-25T15:22:36Z</time>
      </trkpt>
      <trkpt lat="49.20395" lon="5.06801">
        <ele>250.56</ele>
        <time>2021-07-25T15:22:59Z</time>
      </trkpt>
      <trkpt lat="49.20363" lon="5.06777">
        <ele>248.16</ele>
        <time>2021-07-25T15:23:11Z</time>
      </trkpt>
      <trkpt lat="49.20359" lon="5.06775">
        <ele>247.68</ele>
        <time>2021-07-25T15:23:12Z</time>
      </trkpt>
      <trkpt lat="49.20355" lon="5.06773">
        <ele>247.2</ele>
        <time>2021-07-25T15:23:13Z</time>
      </trkpt>
      <trkpt lat="49.20306" lon="5.06749">
        <ele>246.23</ele>
        <time>2021-07-25T15:23:24Z</time>
      </trkpt>
      <trkpt lat="49.20272" lon="5.06736">
        <ele>245.27</ele>
        <time>2021-07-25T15:23:35Z</time>
      </trkpt>
      <trkpt lat="49.20269" lon="5.06737">
        <ele>244.79</ele>
        <time>2021-07-25T15:23:36Z</time>
      </trkpt>
      <trkpt lat="49.2027" lon="5.06744">
        <ele>244.31</ele>
        <time>2021-07-25T15:23:37Z</time>
      </trkpt>
      <trkpt lat="49.20271" lon="5.06747">
        <ele>244.31</ele>
        <time>2021-07-25T15:23:38Z</time>
      </trkpt>
      <trkpt lat="49.20272" lon="5.06752">
        <ele>243.83</ele>
        <time>2021-07-25T15:23:39Z</time>
      </trkpt>
      <trkpt lat="49.20274" lon="5.06757">
        <ele>243.35</ele>
        <time>2021-07-25T15:23:40Z</time>
      </trkpt>
      <trkpt lat="49.20299" lon="5.06876">
        <ele>236.62</ele>
        <time>2021-07-25T15:23:56Z</time>
      </trkpt>
      <trkpt lat="49.2032" lon="5.07">
        <ele>229.41</ele>
        <time>2021-07-25T15:24:08Z</time>
      </trkpt>
      <trkpt lat="49.20329" lon="5.07051">
        <ele>225.57</ele>
        <time>2021-07-25T15:24:18Z</time>
      </trkpt>
      <trkpt lat="49.20344" lon="5.07135">
        <ele>223.64</ele>
        <time>2021-07-25T15:24:30Z</time>
      </trkpt>
      <trkpt lat="49.20345" lon="5.07144">
        <ele>222.68</ele>
        <time>2021-07-25T15:24:40Z</time>
      </trkpt>
      <trkpt lat="49.20346" lon="5.07144">
        <ele>222.2</ele>
        <time>2021-07-25T15:24:48Z</time>
      </trkpt>
      <trkpt lat="49.20328" lon="5.07155">
        <ele>222.2</ele>
        <time>2021-07-25T15:24:49Z</time>
      </trkpt>
      <trkpt lat="49.20328" lon="5.07155">
        <ele>222.2</ele>
        <time>2021-07-25T15:24:50Z</time>
      </trkpt>
      <trkpt lat="49.20327" lon="5.07152">
        <ele>222.2</ele>
        <time>2021-07-25T15:24:51Z</time>
      </trkpt>
      <trkpt lat="49.20325" lon="5.07148">
        <ele>222.2</ele>
        <time>2021-07-25T15:24:52Z</time>
      </trkpt>
      <trkpt lat="49.20322" lon="5.07143">
        <ele>221.72</ele>
        <time>2021-07-25T15:24:53Z</time>
      </trkpt>
      <trkpt lat="49.20283" lon="5.07074">
        <ele>219.8</ele>
        <time>2021-07-25T15:25:03Z</time>
      </trkpt>
      <trkpt lat="49.20199" lon="5.06996">
        <ele>215.95</ele>
        <time>2021-07-25T15:25:18Z</time>
      </trkpt>
      <trkpt lat="49.20104" lon="5.06957">
        <ele>215.47</ele>
        <time>2021-07-25T15:25:28Z</time>
      </trkpt>
      <trkpt lat="49.19938" lon="5.06917">
        <ele>208.74</ele>
        <time>2021-07-25T15:25:45Z</time>
      </trkpt>
      <trkpt lat="49.19848" lon="5.06865">
        <ele>206.34</ele>
        <time>2021-07-25T15:25:54Z</time>
      </trkpt>
      <trkpt lat="49.19748" lon="5.06771">
        <ele>202.98</ele>
        <time>2021-07-25T15:26:05Z</time>
      </trkpt>
      <trkpt lat="49.19701" lon="5.06732">
        <ele>202.01</ele>
        <time>2021-07-25T15:26:10Z</time>
      </trkpt>
      <trkpt lat="49.19692" lon="5.06723">
        <ele>202.01</ele>
        <time>2021-07-25T15:26:11Z</time>
      </trkpt>
      <trkpt lat="49.19685" lon="5.06711">
        <ele>202.01</ele>
        <time>2021-07-25T15:26:12Z</time>
      </trkpt>
      <trkpt lat="49.19679" lon="5.06698">
        <ele>201.05</ele>
        <time>2021-07-25T15:26:13Z</time>
      </trkpt>
      <trkpt lat="49.19672" lon="5.06685">
        <ele>200.09</ele>
        <time>2021-07-25T15:26:14Z</time>
      </trkpt>
      <trkpt lat="49.19666" lon="5.06671">
        <ele>200.09</ele>
        <time>2021-07-25T15:26:15Z</time>
      </trkpt>
      <trkpt lat="49.1958" lon="5.06431">
        <ele>193.36</ele>
        <time>2021-07-25T15:26:30Z</time>
      </trkpt>
      <trkpt lat="49.19519" lon="5.06246">
        <ele>190</ele>
        <time>2021-07-25T15:26:41Z</time>
      </trkpt>
      <trkpt lat="49.19516" lon="5.06229">
        <ele>190.48</ele>
        <time>2021-07-25T15:26:42Z</time>
      </trkpt>
      <trkpt lat="49.19514" lon="5.06213">
        <ele>190.96</ele>
        <time>2021-07-25T15:26:43Z</time>
      </trkpt>
      <trkpt lat="49.19513" lon="5.06197">
        <ele>189.04</ele>
        <time>2021-07-25T15:26:44Z</time>
      </trkpt>
      <trkpt lat="49.19515" lon="5.06182">
        <ele>188.08</ele>
        <time>2021-07-25T15:26:45Z</time>
      </trkpt>
      <trkpt lat="49.19518" lon="5.06166">
        <ele>188.56</ele>
        <time>2021-07-25T15:26:46Z</time>
      </trkpt>
      <trkpt lat="49.19521" lon="5.06149">
        <ele>187.11</ele>
        <time>2021-07-25T15:26:47Z</time>
      </trkpt>
      <trkpt lat="49.19525" lon="5.06134">
        <ele>186.15</ele>
        <time>2021-07-25T15:26:48Z</time>
      </trkpt>
      <trkpt lat="49.19532" lon="5.06121">
        <ele>185.19</ele>
        <time>2021-07-25T15:26:49Z</time>
      </trkpt>
      <trkpt lat="49.19539" lon="5.06107">
        <ele>184.23</ele>
        <time>2021-07-25T15:26:50Z</time>
      </trkpt>
      <trkpt lat="49.19547" lon="5.06093">
        <ele>184.23</ele>
        <time>2021-07-25T15:26:51Z</time>
      </trkpt>
      <trkpt lat="49.19558" lon="5.0608">
        <ele>183.75</ele>
        <time>2021-07-25T15:26:52Z</time>
      </trkpt>
      <trkpt lat="49.19618" lon="5.05978">
        <ele>185.19</ele>
        <time>2021-07-25T15:26:59Z</time>
      </trkpt>
      <trkpt lat="49.19657" lon="5.05789">
        <ele>193.84</ele>
        <time>2021-07-25T15:27:08Z</time>
      </trkpt>
      <trkpt lat="49.19689" lon="5.05606">
        <ele>195.77</ele>
        <time>2021-07-25T15:27:17Z</time>
      </trkpt>
      <trkpt lat="49.19689" lon="5.05606">
        <ele>196.25</ele>
        <time>2021-07-25T15:27:18Z</time>
      </trkpt>
      <trkpt lat="49.19689" lon="5.05588">
        <ele>196.25</ele>
        <time>2021-07-25T15:27:19Z</time>
      </trkpt>
      <trkpt lat="49.19671" lon="5.0534">
        <ele>189.52</ele>
        <time>2021-07-25T15:27:29Z</time>
      </trkpt>
      <trkpt lat="49.19638" lon="5.04946">
        <ele>190</ele>
        <time>2021-07-25T15:27:47Z</time>
      </trkpt>
      <trkpt lat="49.19637" lon="5.04723">
        <ele>185.67</ele>
        <time>2021-07-25T15:27:59Z</time>
      </trkpt>
      <trkpt lat="49.19648" lon="5.04606">
        <ele>180.87</ele>
        <time>2021-07-25T15:28:07Z</time>
      </trkpt>
      <trkpt lat="49.1965" lon="5.04446">
        <ele>180.87</ele>
        <time>2021-07-25T15:28:21Z</time>
      </trkpt>
      <trkpt lat="49.19649" lon="5.04437">
        <ele>180.87</ele>
        <time>2021-07-25T15:28:22Z</time>
      </trkpt>
      <trkpt lat="49.19647" lon="5.04426">
        <ele>180.38</ele>
        <time>2021-07-25T15:28:23Z</time>
      </trkpt>
      <trkpt lat="49.19613" lon="5.04295">
        <ele>178.46</ele>
        <time>2021-07-25T15:28:36Z</time>
      </trkpt>
      <trkpt lat="49.19619" lon="5.04275">
        <ele>179.42</ele>
        <time>2021-07-25T15:28:44Z</time>
      </trkpt>
      <trkpt lat="49.19672" lon="5.04241">
        <ele>178.46</ele>
        <time>2021-07-25T15:28:53Z</time>
      </trkpt>
      <trkpt lat="49.19802" lon="5.04161">
        <ele>177.02</ele>
        <time>2021-07-25T15:29:05Z</time>
      </trkpt>
      <trkpt lat="49.19947" lon="5.04083">
        <ele>173.66</ele>
        <time>2021-07-25T15:29:20Z</time>
      </trkpt>
      <trkpt lat="49.20161" lon="5.03993">
        <ele>164.04</ele>
        <time>2021-07-25T15:29:37Z</time>
      </trkpt>
      <trkpt lat="49.2042" lon="5.03887">
        <ele>154.43</ele>
        <time>2021-07-25T15:29:55Z</time>
      </trkpt>
      <trkpt lat="49.20621" lon="5.03804">
        <ele>156.35</ele>
        <time>2021-07-25T15:30:08Z</time>
      </trkpt>
      <trkpt lat="49.20847" lon="5.0371">
        <ele>166.93</ele>
        <time>2021-07-25T15:30:23Z</time>
      </trkpt>
      <trkpt lat="49.20997" lon="5.03649">
        <ele>169.81</ele>
        <time>2021-07-25T15:30:33Z</time>
      </trkpt>
      <trkpt lat="49.21162" lon="5.03581">
        <ele>176.06</ele>
        <time>2021-07-25T15:30:43Z</time>
      </trkpt>
      <trkpt lat="49.21444" lon="5.03466">
        <ele>171.73</ele>
        <time>2021-07-25T15:31:01Z</time>
      </trkpt>
      <trkpt lat="49.21674" lon="5.03372">
        <ele>173.66</ele>
        <time>2021-07-25T15:31:14Z</time>
      </trkpt>
      <trkpt lat="49.21941" lon="5.03263">
        <ele>173.66</ele>
        <time>2021-07-25T15:31:31Z</time>
      </trkpt>
      <trkpt lat="49.22178" lon="5.03167">
        <ele>173.66</ele>
        <time>2021-07-25T15:31:45Z</time>
      </trkpt>
      <trkpt lat="49.22317" lon="5.03109">
        <ele>173.66</ele>
        <time>2021-07-25T15:31:55Z</time>
      </trkpt>
      <trkpt lat="49.22375" lon="5.03093">
        <ele>175.1</ele>
        <time>2021-07-25T15:32:02Z</time>
      </trkpt>
      <trkpt lat="49.22379" lon="5.03096">
        <ele>175.1</ele>
        <time>2021-07-25T15:32:03Z</time>
      </trkpt>
      <trkpt lat="49.22383" lon="5.03099">
        <ele>175.58</ele>
        <time>2021-07-25T15:32:04Z</time>
      </trkpt>
      <trkpt lat="49.22448" lon="5.03141">
        <ele>175.1</ele>
        <time>2021-07-25T15:32:15Z</time>
      </trkpt>
      <trkpt lat="49.22484" lon="5.03167">
        <ele>175.1</ele>
        <time>2021-07-25T15:32:25Z</time>
      </trkpt>
      <trkpt lat="49.22485" lon="5.03168">
        <ele>174.62</ele>
        <time>2021-07-25T15:32:34Z</time>
      </trkpt>
      <trkpt lat="49.22487" lon="5.03162">
        <ele>174.62</ele>
        <time>2021-07-25T15:32:35Z</time>
      </trkpt>
      <trkpt lat="49.22489" lon="5.03159">
        <ele>174.62</ele>
        <time>2021-07-25T15:32:36Z</time>
      </trkpt>
      <trkpt lat="49.22504" lon="5.03139">
        <ele>174.62</ele>
        <time>2021-07-25T15:32:47Z</time>
      </trkpt>
      <trkpt lat="49.22504" lon="5.03141">
        <ele>174.62</ele>
        <time>2021-07-25T15:32:58Z</time>
      </trkpt>
      <trkpt lat="49.22504" lon="5.03142">
        <ele>174.62</ele>
        <time>2021-07-25T15:33:00Z</time>
      </trkpt>
      <trkpt lat="49.22499" lon="5.03153">
        <ele>175.1</ele>
        <time>2021-07-25T15:33:13Z</time>
      </trkpt>
      <trkpt lat="49.22489" lon="5.03159">
        <ele>176.06</ele>
        <time>2021-07-25T15:33:18Z</time>
      </trkpt>
      <trkpt lat="49.22487" lon="5.03163">
        <ele>176.54</ele>
        <time>2021-07-25T15:33:19Z</time>
      </trkpt>
      <trkpt lat="49.22485" lon="5.03166">
        <ele>176.06</ele>
        <time>2021-07-25T15:33:20Z</time>
      </trkpt>
      <trkpt lat="49.22484" lon="5.03169">
        <ele>176.54</ele>
        <time>2021-07-25T15:33:21Z</time>
      </trkpt>
      <trkpt lat="49.22487" lon="5.0317">
        <ele>176.06</ele>
        <time>2021-07-25T15:33:22Z</time>
      </trkpt>
      <trkpt lat="49.2249" lon="5.03173">
        <ele>176.06</ele>
        <time>2021-07-25T15:33:23Z</time>
      </trkpt>
      <trkpt lat="49.22493" lon="5.03175">
        <ele>176.06</ele>
        <time>2021-07-25T15:33:24Z</time>
      </trkpt>
      <trkpt lat="49.22496" lon="5.03178">
        <ele>176.06</ele>
        <time>2021-07-25T15:33:25Z</time>
      </trkpt>
      <trkpt lat="49.22536" lon="5.03219">
        <ele>174.14</ele>
        <time>2021-07-25T15:33:40Z</time>
      </trkpt>
      <trkpt lat="49.22556" lon="5.03204">
        <ele>172.69</ele>
        <time>2021-07-25T15:33:48Z</time>
      </trkpt>
      <trkpt lat="49.22589" lon="5.03148">
        <ele>173.17</ele>
        <time>2021-07-25T15:34:03Z</time>
      </trkpt>
      <trkpt lat="49.22594" lon="5.03141">
        <ele>172.69</ele>
        <time>2021-07-25T15:34:15Z</time>
      </trkpt>
      <trkpt lat="49.22594" lon="5.03141">
        <ele>172.69</ele>
        <time>2021-07-25T15:34:23Z</time>
      </trkpt>
      <trkpt lat="49.22603" lon="5.0314">
        <ele>172.21</ele>
        <time>2021-07-25T15:34:35Z</time>
      </trkpt>
      <trkpt lat="49.22608" lon="5.03147">
        <ele>171.25</ele>
        <time>2021-07-25T15:35:02Z</time>
      </trkpt>
      <trkpt lat="49.22621" lon="5.03165">
        <ele>169.81</ele>
        <time>2021-07-25T15:35:18Z</time>
      </trkpt>
      <trkpt lat="49.22635" lon="5.03196">
        <ele>167.41</ele>
        <time>2021-07-25T15:38:59Z</time>
      </trkpt>
      <trkpt lat="49.22672" lon="5.03325">
        <ele>160.68</ele>
        <time>2021-07-25T15:39:24Z</time>
      </trkpt>
      <trkpt lat="49.2268" lon="5.03354">
        <ele>158.75</ele>
        <time>2021-07-25T15:39:35Z</time>
      </trkpt>
      <trkpt lat="49.22686" lon="5.03357">
        <ele>158.27</ele>
        <time>2021-07-25T15:39:47Z</time>
      </trkpt>
      <trkpt lat="49.22707" lon="5.03365">
        <ele>156.83</ele>
        <time>2021-07-25T15:40:36Z</time>
      </trkpt>
      <trkpt lat="49.22764" lon="5.03372">
        <ele>152.03</ele>
        <time>2021-07-25T15:40:58Z</time>
      </trkpt>
      <trkpt lat="49.22785" lon="5.03411">
        <ele>150.58</ele>
        <time>2021-07-25T15:41:08Z</time>
      </trkpt>
      <trkpt lat="49.22791" lon="5.03492">
        <ele>150.1</ele>
        <time>2021-07-25T15:41:26Z</time>
      </trkpt>
      <trkpt lat="49.22796" lon="5.03509">
        <ele>150.1</ele>
        <time>2021-07-25T15:41:40Z</time>
      </trkpt>
      <trkpt lat="49.22796" lon="5.03509">
        <ele>150.58</ele>
        <time>2021-07-25T15:41:55Z</time>
      </trkpt>
      <trkpt lat="49.22796" lon="5.03509">
        <ele>150.58</ele>
        <time>2021-07-25T15:45:03Z</time>
      </trkpt>
      <trkpt lat="49.22796" lon="5.03509">
        <ele>151.06</ele>
        <time>2021-07-25T15:50:09Z</time>
      </trkpt>
      <trkpt lat="49.22796" lon="5.03509">
        <ele>152.03</ele>
        <time>2021-07-25T15:56:47Z</time>
      </trkpt>
      <trkpt lat="49.22796" lon="5.03509">
        <ele>152.99</ele>
        <time>2021-07-25T16:05:47Z</time>
      </trkpt>
      <trkpt lat="49.22796" lon="5.03509">
        <ele>153.47</ele>
        <time>2021-07-25T16:10:50Z</time>
      </trkpt>
      <trkpt lat="49.22796" lon="5.03509">
        <ele>153.47</ele>
        <time>2021-07-25T16:16:39Z</time>
      </trkpt>
      <trkpt lat="49.22796" lon="5.03509">
        <ele>153.47</ele>
        <time>2021-07-25T16:21:08Z</time>
      </trkpt>
      <trkpt lat="49.22796" lon="5.03509">
        <ele>153.47</ele>
        <time>2021-07-25T16:24:05Z</time>
      </trkpt>
      <trkpt lat="49.22796" lon="5.03509">
        <ele>153.47</ele>
        <time>2021-07-25T16:24:06Z</time>
      </trkpt>
      <trkpt lat="49.22799" lon="5.03524">
        <ele>153.47</ele>
        <time>2021-07-25T16:24:07Z</time>
      </trkpt>
      <trkpt lat="49.228" lon="5.03528">
        <ele>153.47</ele>
        <time>2021-07-25T16:24:08Z</time>
      </trkpt>
      <trkpt lat="49.228" lon="5.03528">
        <ele>153.47</ele>
        <time>2021-07-25T16:24:09Z</time>
      </trkpt>
      <trkpt lat="49.22801" lon="5.0353">
        <ele>153.47</ele>
        <time>2021-07-25T16:24:10Z</time>
      </trkpt>
      <trkpt lat="49.22801" lon="5.03533">
        <ele>153.95</ele>
        <time>2021-07-25T16:24:11Z</time>
      </trkpt>
      <trkpt lat="49.22802" lon="5.03537">
        <ele>153.95</ele>
        <time>2021-07-25T16:24:12Z</time>
      </trkpt>
      <trkpt lat="49.22803" lon="5.03542">
        <ele>153.95</ele>
        <time>2021-07-25T16:24:13Z</time>
      </trkpt>
      <trkpt lat="49.22822" lon="5.03624">
        <ele>153.47</ele>
        <time>2021-07-25T16:24:26Z</time>
      </trkpt>
      <trkpt lat="49.22847" lon="5.0378">
        <ele>154.43</ele>
        <time>2021-07-25T16:24:42Z</time>
      </trkpt>
      <trkpt lat="49.22862" lon="5.0397">
        <ele>154.43</ele>
        <time>2021-07-25T16:24:57Z</time>
      </trkpt>
      <trkpt lat="49.22875" lon="5.04182">
        <ele>157.31</ele>
        <time>2021-07-25T16:25:12Z</time>
      </trkpt>
      <trkpt lat="49.2289" lon="5.04455">
        <ele>167.41</ele>
        <time>2021-07-25T16:25:31Z</time>
      </trkpt>
      <trkpt lat="49.22893" lon="5.04465">
        <ele>168.37</ele>
        <time>2021-07-25T16:25:32Z</time>
      </trkpt>
      <trkpt lat="49.22896" lon="5.04474">
        <ele>168.85</ele>
        <time>2021-07-25T16:25:33Z</time>
      </trkpt>
      <trkpt lat="49.22903" lon="5.0448">
        <ele>168.85</ele>
        <time>2021-07-25T16:25:34Z</time>
      </trkpt>
      <trkpt lat="49.2291" lon="5.04486">
        <ele>169.33</ele>
        <time>2021-07-25T16:25:35Z</time>
      </trkpt>
      <trkpt lat="49.22917" lon="5.04488">
        <ele>169.81</ele>
        <time>2021-07-25T16:25:36Z</time>
      </trkpt>
      <trkpt lat="49.22925" lon="5.04488">
        <ele>170.29</ele>
        <time>2021-07-25T16:25:37Z</time>
      </trkpt>
      <trkpt lat="49.22959" lon="5.04491">
        <ele>171.25</ele>
        <time>2021-07-25T16:25:41Z</time>
      </trkpt>
      <trkpt lat="49.23082" lon="5.045">
        <ele>173.66</ele>
        <time>2021-07-25T16:25:53Z</time>
      </trkpt>
      <trkpt lat="49.23314" lon="5.04509">
        <ele>188.56</ele>
        <time>2021-07-25T16:26:12Z</time>
      </trkpt>
      <trkpt lat="49.23325" lon="5.04504">
        <ele>188.56</ele>
        <time>2021-07-25T16:26:13Z</time>
      </trkpt>
      <trkpt lat="49.23335" lon="5.04498">
        <ele>189.52</ele>
        <time>2021-07-25T16:26:14Z</time>
      </trkpt>
      <trkpt lat="49.23344" lon="5.04492">
        <ele>190.48</ele>
        <time>2021-07-25T16:26:15Z</time>
      </trkpt>
      <trkpt lat="49.23352" lon="5.04483">
        <ele>190.48</ele>
        <time>2021-07-25T16:26:16Z</time>
      </trkpt>
      <trkpt lat="49.23475" lon="5.04341">
        <ele>192.4</ele>
        <time>2021-07-25T16:26:29Z</time>
      </trkpt>
      <trkpt lat="49.2366" lon="5.0412">
        <ele>190</ele>
        <time>2021-07-25T16:26:46Z</time>
      </trkpt>
      <trkpt lat="49.23899" lon="5.03834">
        <ele>188.08</ele>
        <time>2021-07-25T16:27:07Z</time>
      </trkpt>
      <trkpt lat="49.24111" lon="5.03581">
        <ele>182.31</ele>
        <time>2021-07-25T16:27:25Z</time>
      </trkpt>
      <trkpt lat="49.24285" lon="5.03372">
        <ele>184.71</ele>
        <time>2021-07-25T16:27:39Z</time>
      </trkpt>
      <trkpt lat="49.2436" lon="5.03283">
        <ele>184.23</ele>
        <time>2021-07-25T16:27:47Z</time>
      </trkpt>
      <trkpt lat="49.24471" lon="5.0315">
        <ele>177.5</ele>
        <time>2021-07-25T16:28:01Z</time>
      </trkpt>
      <trkpt lat="49.24629" lon="5.02962">
        <ele>180.38</ele>
        <time>2021-07-25T16:28:17Z</time>
      </trkpt>
      <trkpt lat="49.2473" lon="5.02841">
        <ele>183.27</ele>
        <time>2021-07-25T16:28:28Z</time>
      </trkpt>
      <trkpt lat="49.24823" lon="5.02731">
        <ele>181.83</ele>
        <time>2021-07-25T16:28:38Z</time>
      </trkpt>
      <trkpt lat="49.24833" lon="5.02718">
        <ele>182.31</ele>
        <time>2021-07-25T16:28:40Z</time>
      </trkpt>
      <trkpt lat="49.24837" lon="5.02714">
        <ele>182.31</ele>
        <time>2021-07-25T16:28:41Z</time>
      </trkpt>
      <trkpt lat="49.2484" lon="5.02711">
        <ele>182.31</ele>
        <time>2021-07-25T16:28:42Z</time>
      </trkpt>
      <trkpt lat="49.24842" lon="5.02708">
        <ele>182.79</ele>
        <time>2021-07-25T16:28:43Z</time>
      </trkpt>
      <trkpt lat="49.24843" lon="5.02707">
        <ele>182.79</ele>
        <time>2021-07-25T16:28:44Z</time>
      </trkpt>
      <trkpt lat="49.24845" lon="5.02705">
        <ele>182.79</ele>
        <time>2021-07-25T16:28:45Z</time>
      </trkpt>
      <trkpt lat="49.24846" lon="5.02703">
        <ele>182.79</ele>
        <time>2021-07-25T16:28:46Z</time>
      </trkpt>
      <trkpt lat="49.24847" lon="5.02702">
        <ele>186.15</ele>
        <time>2021-07-25T16:29:03Z</time>
      </trkpt>
      <trkpt lat="49.24846" lon="5.02704">
        <ele>186.15</ele>
        <time>2021-07-25T16:29:05Z</time>
      </trkpt>
      <trkpt lat="49.24844" lon="5.02706">
        <ele>186.15</ele>
        <time>2021-07-25T16:29:06Z</time>
      </trkpt>
      <trkpt lat="49.24841" lon="5.02709">
        <ele>185.67</ele>
        <time>2021-07-25T16:29:07Z</time>
      </trkpt>
      <trkpt lat="49.24837" lon="5.02713">
        <ele>185.67</ele>
        <time>2021-07-25T16:29:08Z</time>
      </trkpt>
      <trkpt lat="49.24788" lon="5.02773">
        <ele>185.19</ele>
        <time>2021-07-25T16:29:17Z</time>
      </trkpt>
      <trkpt lat="49.24658" lon="5.02927">
        <ele>183.75</ele>
        <time>2021-07-25T16:29:32Z</time>
      </trkpt>
      <trkpt lat="49.24495" lon="5.03121">
        <ele>182.31</ele>
        <time>2021-07-25T16:29:46Z</time>
      </trkpt>
      <trkpt lat="49.24383" lon="5.03255">
        <ele>185.67</ele>
        <time>2021-07-25T16:29:56Z</time>
      </trkpt>
      <trkpt lat="49.24323" lon="5.03326">
        <ele>187.11</ele>
        <time>2021-07-25T16:30:04Z</time>
      </trkpt>
      <trkpt lat="49.2432" lon="5.0333">
        <ele>187.59</ele>
        <time>2021-07-25T16:30:05Z</time>
      </trkpt>
      <trkpt lat="49.24319" lon="5.03345">
        <ele>188.08</ele>
        <time>2021-07-25T16:30:06Z</time>
      </trkpt>
      <trkpt lat="49.24319" lon="5.03345">
        <ele>187.59</ele>
        <time>2021-07-25T16:30:07Z</time>
      </trkpt>
      <trkpt lat="49.24322" lon="5.03346">
        <ele>187.59</ele>
        <time>2021-07-25T16:30:08Z</time>
      </trkpt>
      <trkpt lat="49.24327" lon="5.03348">
        <ele>188.08</ele>
        <time>2021-07-25T16:30:09Z</time>
      </trkpt>
      <trkpt lat="49.24332" lon="5.0335">
        <ele>188.08</ele>
        <time>2021-07-25T16:30:10Z</time>
      </trkpt>
      <trkpt lat="49.24338" lon="5.03353">
        <ele>188.08</ele>
        <time>2021-07-25T16:30:11Z</time>
      </trkpt>
      <trkpt lat="49.24439" lon="5.03356">
        <ele>188.56</ele>
        <time>2021-07-25T16:30:24Z</time>
      </trkpt>
      <trkpt lat="49.2459" lon="5.03358">
        <ele>190.96</ele>
        <time>2021-07-25T16:30:40Z</time>
      </trkpt>
      <trkpt lat="49.24757" lon="5.03361">
        <ele>191.44</ele>
        <time>2021-07-25T16:30:54Z</time>
      </trkpt>
      <trkpt lat="49.24958" lon="5.03361">
        <ele>193.36</ele>
        <time>2021-07-25T16:31:10Z</time>
      </trkpt>
      <trkpt lat="49.2497" lon="5.03361">
        <ele>193.84</ele>
        <time>2021-07-25T16:31:11Z</time>
      </trkpt>
      <trkpt lat="49.24983" lon="5.03356">
        <ele>193.36</ele>
        <time>2021-07-25T16:31:12Z</time>
      </trkpt>
      <trkpt lat="49.24994" lon="5.03348">
        <ele>195.28</ele>
        <time>2021-07-25T16:31:13Z</time>
      </trkpt>
      <trkpt lat="49.25004" lon="5.0334">
        <ele>194.8</ele>
        <time>2021-07-25T16:31:14Z</time>
      </trkpt>
      <trkpt lat="49.25042" lon="5.03297">
        <ele>193.84</ele>
        <time>2021-07-25T16:31:18Z</time>
      </trkpt>
      <trkpt lat="49.25052" lon="5.03287">
        <ele>196.25</ele>
        <time>2021-07-25T16:31:19Z</time>
      </trkpt>
      <trkpt lat="49.25062" lon="5.03281">
        <ele>195.77</ele>
        <time>2021-07-25T16:31:20Z</time>
      </trkpt>
      <trkpt lat="49.25073" lon="5.03276">
        <ele>194.8</ele>
        <time>2021-07-25T16:31:21Z</time>
      </trkpt>
      <trkpt lat="49.25084" lon="5.03274">
        <ele>193.84</ele>
        <time>2021-07-25T16:31:22Z</time>
      </trkpt>
      <trkpt lat="49.25135" lon="5.03263">
        <ele>193.84</ele>
        <time>2021-07-25T16:31:27Z</time>
      </trkpt>
      <trkpt lat="49.25144" lon="5.03257">
        <ele>193.36</ele>
        <time>2021-07-25T16:31:28Z</time>
      </trkpt>
      <trkpt lat="49.25154" lon="5.03251">
        <ele>191.92</ele>
        <time>2021-07-25T16:31:29Z</time>
      </trkpt>
      <trkpt lat="49.25299" lon="5.03115">
        <ele>180.87</ele>
        <time>2021-07-25T16:31:45Z</time>
      </trkpt>
      <trkpt lat="49.25393" lon="5.0306">
        <ele>167.41</ele>
        <time>2021-07-25T16:31:55Z</time>
      </trkpt>
      <trkpt lat="49.25569" lon="5.03004">
        <ele>155.39</ele>
        <time>2021-07-25T16:32:09Z</time>
      </trkpt>
      <trkpt lat="49.257" lon="5.02937">
        <ele>148.66</ele>
        <time>2021-07-25T16:32:19Z</time>
      </trkpt>
      <trkpt lat="49.25711" lon="5.02932">
        <ele>148.18</ele>
        <time>2021-07-25T16:32:20Z</time>
      </trkpt>
      <trkpt lat="49.25722" lon="5.02933">
        <ele>149.62</ele>
        <time>2021-07-25T16:32:21Z</time>
      </trkpt>
      <trkpt lat="49.25732" lon="5.02935">
        <ele>150.58</ele>
        <time>2021-07-25T16:32:22Z</time>
      </trkpt>
      <trkpt lat="49.25741" lon="5.02937">
        <ele>150.1</ele>
        <time>2021-07-25T16:32:23Z</time>
      </trkpt>
      <trkpt lat="49.25765" lon="5.02948">
        <ele>148.66</ele>
        <time>2021-07-25T16:32:26Z</time>
      </trkpt>
      <trkpt lat="49.25774" lon="5.02954">
        <ele>147.22</ele>
        <time>2021-07-25T16:32:27Z</time>
      </trkpt>
      <trkpt lat="49.25779" lon="5.02961">
        <ele>145.3</ele>
        <time>2021-07-25T16:32:28Z</time>
      </trkpt>
      <trkpt lat="49.25783" lon="5.02972">
        <ele>144.34</ele>
        <time>2021-07-25T16:32:29Z</time>
      </trkpt>
      <trkpt lat="49.25785" lon="5.02982">
        <ele>142.89</ele>
        <time>2021-07-25T16:32:30Z</time>
      </trkpt>
      <trkpt lat="49.25784" lon="5.02995">
        <ele>143.85</ele>
        <time>2021-07-25T16:32:31Z</time>
      </trkpt>
      <trkpt lat="49.25782" lon="5.03007">
        <ele>144.34</ele>
        <time>2021-07-25T16:32:32Z</time>
      </trkpt>
      <trkpt lat="49.25777" lon="5.03032">
        <ele>144.34</ele>
        <time>2021-07-25T16:32:34Z</time>
      </trkpt>
      <trkpt lat="49.25776" lon="5.03044">
        <ele>144.34</ele>
        <time>2021-07-25T16:32:35Z</time>
      </trkpt>
      <trkpt lat="49.25776" lon="5.03056">
        <ele>144.34</ele>
        <time>2021-07-25T16:32:36Z</time>
      </trkpt>
      <trkpt lat="49.25776" lon="5.03067">
        <ele>144.82</ele>
        <time>2021-07-25T16:32:37Z</time>
      </trkpt>
      <trkpt lat="49.25777" lon="5.03077">
        <ele>144.82</ele>
        <time>2021-07-25T16:32:38Z</time>
      </trkpt>
      <trkpt lat="49.25784" lon="5.03108">
        <ele>145.78</ele>
        <time>2021-07-25T16:32:45Z</time>
      </trkpt>
      <trkpt lat="49.2579" lon="5.03127">
        <ele>144.82</ele>
        <time>2021-07-25T16:33:23Z</time>
      </trkpt>
      <trkpt lat="49.25792" lon="5.03134">
        <ele>144.82</ele>
        <time>2021-07-25T16:33:24Z</time>
      </trkpt>
      <trkpt lat="49.25794" lon="5.0314">
        <ele>145.3</ele>
        <time>2021-07-25T16:33:25Z</time>
      </trkpt>
      <trkpt lat="49.25796" lon="5.03147">
        <ele>145.78</ele>
        <time>2021-07-25T16:33:26Z</time>
      </trkpt>
      <trkpt lat="49.25797" lon="5.03156">
        <ele>146.26</ele>
        <time>2021-07-25T16:33:27Z</time>
      </trkpt>
      <trkpt lat="49.25799" lon="5.03166">
        <ele>146.74</ele>
        <time>2021-07-25T16:33:28Z</time>
      </trkpt>
      <trkpt lat="49.25799" lon="5.03178">
        <ele>147.22</ele>
        <time>2021-07-25T16:33:29Z</time>
      </trkpt>
      <trkpt lat="49.25797" lon="5.03189">
        <ele>147.7</ele>
        <time>2021-07-25T16:33:30Z</time>
      </trkpt>
      <trkpt lat="49.25785" lon="5.0328">
        <ele>155.39</ele>
        <time>2021-07-25T16:33:37Z</time>
      </trkpt>
      <trkpt lat="49.25782" lon="5.03293">
        <ele>156.35</ele>
        <time>2021-07-25T16:33:38Z</time>
      </trkpt>
      <trkpt lat="49.2578" lon="5.03306">
        <ele>156.83</ele>
        <time>2021-07-25T16:33:39Z</time>
      </trkpt>
      <trkpt lat="49.25776" lon="5.03318">
        <ele>156.83</ele>
        <time>2021-07-25T16:33:40Z</time>
      </trkpt>
      <trkpt lat="49.25771" lon="5.0333">
        <ele>156.83</ele>
        <time>2021-07-25T16:33:41Z</time>
      </trkpt>
      <trkpt lat="49.25739" lon="5.03402">
        <ele>159.24</ele>
        <time>2021-07-25T16:33:47Z</time>
      </trkpt>
      <trkpt lat="49.25736" lon="5.03415">
        <ele>159.24</ele>
        <time>2021-07-25T16:33:48Z</time>
      </trkpt>
      <trkpt lat="49.25734" lon="5.03427">
        <ele>160.2</ele>
        <time>2021-07-25T16:33:49Z</time>
      </trkpt>
      <trkpt lat="49.25736" lon="5.03438">
        <ele>161.64</ele>
        <time>2021-07-25T16:33:50Z</time>
      </trkpt>
      <trkpt lat="49.25739" lon="5.03451">
        <ele>163.56</ele>
        <time>2021-07-25T16:33:51Z</time>
      </trkpt>
      <trkpt lat="49.25743" lon="5.03465">
        <ele>163.56</ele>
        <time>2021-07-25T16:33:52Z</time>
      </trkpt>
      <trkpt lat="49.25749" lon="5.03476">
        <ele>162.12</ele>
        <time>2021-07-25T16:33:53Z</time>
      </trkpt>
      <trkpt lat="49.25825" lon="5.03585">
        <ele>167.41</ele>
        <time>2021-07-25T16:34:01Z</time>
      </trkpt>
      <trkpt lat="49.26002" lon="5.0384">
        <ele>171.25</ele>
        <time>2021-07-25T16:34:17Z</time>
      </trkpt>
      <trkpt lat="49.26144" lon="5.04044">
        <ele>178.94</ele>
        <time>2021-07-25T16:34:28Z</time>
      </trkpt>
      <trkpt lat="49.26272" lon="5.0423">
        <ele>196.25</ele>
        <time>2021-07-25T16:34:40Z</time>
      </trkpt>
      <trkpt lat="49.26406" lon="5.04422">
        <ele>206.82</ele>
        <time>2021-07-25T16:34:53Z</time>
      </trkpt>
      <trkpt lat="49.26551" lon="5.04631">
        <ele>209.22</ele>
        <time>2021-07-25T16:35:05Z</time>
      </trkpt>
      <trkpt lat="49.26746" lon="5.04915">
        <ele>209.22</ele>
        <time>2021-07-25T16:35:19Z</time>
      </trkpt>
      <trkpt lat="49.2706" lon="5.05372">
        <ele>211.15</ele>
        <time>2021-07-25T16:35:40Z</time>
      </trkpt>
      <trkpt lat="49.27301" lon="5.05721">
        <ele>220.28</ele>
        <time>2021-07-25T16:35:57Z</time>
      </trkpt>
      <trkpt lat="49.27534" lon="5.06059">
        <ele>213.07</ele>
        <time>2021-07-25T16:36:14Z</time>
      </trkpt>
      <trkpt lat="49.27704" lon="5.06307">
        <ele>217.88</ele>
        <time>2021-07-25T16:36:26Z</time>
      </trkpt>
      <trkpt lat="49.27842" lon="5.06506">
        <ele>227.49</ele>
        <time>2021-07-25T16:36:38Z</time>
      </trkpt>
      <trkpt lat="49.28041" lon="5.06797">
        <ele>228.93</ele>
        <time>2021-07-25T16:36:54Z</time>
      </trkpt>
      <trkpt lat="49.28283" lon="5.07145">
        <ele>233.74</ele>
        <time>2021-07-25T16:37:11Z</time>
      </trkpt>
      <trkpt lat="49.28418" lon="5.0734">
        <ele>228.93</ele>
        <time>2021-07-25T16:37:21Z</time>
      </trkpt>
      <trkpt lat="49.28529" lon="5.07499">
        <ele>234.7</ele>
        <time>2021-07-25T16:37:31Z</time>
      </trkpt>
      <trkpt lat="49.28688" lon="5.07679">
        <ele>241.43</ele>
        <time>2021-07-25T16:37:42Z</time>
      </trkpt>
      <trkpt lat="49.28844" lon="5.07778">
        <ele>239.51</ele>
        <time>2021-07-25T16:37:51Z</time>
      </trkpt>
      <trkpt lat="49.29043" lon="5.07827">
        <ele>237.1</ele>
        <time>2021-07-25T16:38:01Z</time>
      </trkpt>
      <trkpt lat="49.29394" lon="5.07873">
        <ele>239.02</ele>
        <time>2021-07-25T16:38:17Z</time>
      </trkpt>
      <trkpt lat="49.29666" lon="5.07908">
        <ele>240.47</ele>
        <time>2021-07-25T16:38:30Z</time>
      </trkpt>
      <trkpt lat="49.2996" lon="5.07946">
        <ele>233.74</ele>
        <time>2021-07-25T16:38:43Z</time>
      </trkpt>
      <trkpt lat="49.30174" lon="5.07973">
        <ele>237.1</ele>
        <time>2021-07-25T16:38:53Z</time>
      </trkpt>
      <trkpt lat="49.30392" lon="5.07998">
        <ele>238.06</ele>
        <time>2021-07-25T16:39:06Z</time>
      </trkpt>
      <trkpt lat="49.30752" lon="5.08044">
        <ele>230.85</ele>
        <time>2021-07-25T16:39:24Z</time>
      </trkpt>
      <trkpt lat="49.31164" lon="5.08095">
        <ele>229.41</ele>
        <time>2021-07-25T16:39:43Z</time>
      </trkpt>
      <trkpt lat="49.31335" lon="5.08139">
        <ele>225.09</ele>
        <time>2021-07-25T16:39:51Z</time>
      </trkpt>
      <trkpt lat="49.31369" lon="5.08146">
        <ele>223.16</ele>
        <time>2021-07-25T16:39:53Z</time>
      </trkpt>
      <trkpt lat="49.31369" lon="5.08146">
        <ele>222.68</ele>
        <time>2021-07-25T16:39:54Z</time>
      </trkpt>
      <trkpt lat="49.31387" lon="5.08145">
        <ele>222.2</ele>
        <time>2021-07-25T16:39:55Z</time>
      </trkpt>
      <trkpt lat="49.31473" lon="5.08134">
        <ele>218.84</ele>
        <time>2021-07-25T16:39:59Z</time>
      </trkpt>
      <trkpt lat="49.31473" lon="5.08134">
        <ele>220.28</ele>
        <time>2021-07-25T16:40:00Z</time>
      </trkpt>
      <trkpt lat="49.31489" lon="5.0814">
        <ele>220.28</ele>
        <time>2021-07-25T16:40:01Z</time>
      </trkpt>
      <trkpt lat="49.31504" lon="5.08147">
        <ele>219.32</ele>
        <time>2021-07-25T16:40:02Z</time>
      </trkpt>
      <trkpt lat="49.3152" lon="5.08155">
        <ele>218.36</ele>
        <time>2021-07-25T16:40:03Z</time>
      </trkpt>
      <trkpt lat="49.31579" lon="5.0819">
        <ele>216.91</ele>
        <time>2021-07-25T16:40:07Z</time>
      </trkpt>
      <trkpt lat="49.31595" lon="5.08195">
        <ele>217.88</ele>
        <time>2021-07-25T16:40:08Z</time>
      </trkpt>
      <trkpt lat="49.31611" lon="5.08197">
        <ele>218.36</ele>
        <time>2021-07-25T16:40:09Z</time>
      </trkpt>
      <trkpt lat="49.31814" lon="5.08186">
        <ele>216.91</ele>
        <time>2021-07-25T16:40:21Z</time>
      </trkpt>
      <trkpt lat="49.31889" lon="5.08183">
        <ele>214.99</ele>
        <time>2021-07-25T16:40:25Z</time>
      </trkpt>
      <trkpt lat="49.31907" lon="5.0819">
        <ele>213.07</ele>
        <time>2021-07-25T16:40:26Z</time>
      </trkpt>
      <trkpt lat="49.31943" lon="5.08204">
        <ele>211.63</ele>
        <time>2021-07-25T16:40:27Z</time>
      </trkpt>
      <trkpt lat="49.31997" lon="5.08223">
        <ele>211.15</ele>
        <time>2021-07-25T16:40:30Z</time>
      </trkpt>
      <trkpt lat="49.31997" lon="5.08223">
        <ele>210.67</ele>
        <time>2021-07-25T16:40:31Z</time>
      </trkpt>
      <trkpt lat="49.32209" lon="5.08242">
        <ele>210.67</ele>
        <time>2021-07-25T16:40:42Z</time>
      </trkpt>
      <trkpt lat="49.32316" lon="5.08227">
        <ele>211.63</ele>
        <time>2021-07-25T16:40:48Z</time>
      </trkpt>
      <trkpt lat="49.32334" lon="5.0823">
        <ele>210.19</ele>
        <time>2021-07-25T16:40:49Z</time>
      </trkpt>
      <trkpt lat="49.32368" lon="5.08243">
        <ele>209.22</ele>
        <time>2021-07-25T16:40:50Z</time>
      </trkpt>
      <trkpt lat="49.32368" lon="5.08243">
        <ele>208.74</ele>
        <time>2021-07-25T16:40:51Z</time>
      </trkpt>
      <trkpt lat="49.32385" lon="5.08252">
        <ele>209.22</ele>
        <time>2021-07-25T16:40:52Z</time>
      </trkpt>
      <trkpt lat="49.32401" lon="5.08264">
        <ele>209.7</ele>
        <time>2021-07-25T16:40:53Z</time>
      </trkpt>
      <trkpt lat="49.32416" lon="5.08278">
        <ele>209.7</ele>
        <time>2021-07-25T16:40:54Z</time>
      </trkpt>
      <trkpt lat="49.32513" lon="5.08349">
        <ele>206.82</ele>
        <time>2021-07-25T16:41:01Z</time>
      </trkpt>
      <trkpt lat="49.32617" lon="5.08371">
        <ele>207.3</ele>
        <time>2021-07-25T16:41:10Z</time>
      </trkpt>
      <trkpt lat="49.32734" lon="5.08348">
        <ele>210.67</ele>
        <time>2021-07-25T16:41:19Z</time>
      </trkpt>
      <trkpt lat="49.3284" lon="5.0833">
        <ele>211.15</ele>
        <time>2021-07-25T16:41:29Z</time>
      </trkpt>
      <trkpt lat="49.32868" lon="5.08328">
        <ele>211.15</ele>
        <time>2021-07-25T16:41:32Z</time>
      </trkpt>
      <trkpt lat="49.32877" lon="5.08325">
        <ele>211.63</ele>
        <time>2021-07-25T16:41:33Z</time>
      </trkpt>
      <trkpt lat="49.3305" lon="5.08253">
        <ele>207.3</ele>
        <time>2021-07-25T16:41:52Z</time>
      </trkpt>
      <trkpt lat="49.33127" lon="5.08242">
        <ele>213.55</ele>
        <time>2021-07-25T16:42:01Z</time>
      </trkpt>
      <trkpt lat="49.33181" lon="5.08242">
        <ele>214.03</ele>
        <time>2021-07-25T16:42:07Z</time>
      </trkpt>
      <trkpt lat="49.33185" lon="5.08242">
        <ele>213.07</ele>
        <time>2021-07-25T16:42:08Z</time>
      </trkpt>
      <trkpt lat="49.33187" lon="5.08242">
        <ele>213.55</ele>
        <time>2021-07-25T16:42:09Z</time>
      </trkpt>
      <trkpt lat="49.33193" lon="5.08242">
        <ele>213.55</ele>
        <time>2021-07-25T16:42:11Z</time>
      </trkpt>
      <trkpt lat="49.33201" lon="5.08251">
        <ele>213.55</ele>
        <time>2021-07-25T16:42:12Z</time>
      </trkpt>
      <trkpt lat="49.33201" lon="5.08251">
        <ele>213.07</ele>
        <time>2021-07-25T16:42:13Z</time>
      </trkpt>
      <trkpt lat="49.33201" lon="5.08256">
        <ele>212.11</ele>
        <time>2021-07-25T16:42:14Z</time>
      </trkpt>
      <trkpt lat="49.33201" lon="5.08262">
        <ele>212.11</ele>
        <time>2021-07-25T16:42:15Z</time>
      </trkpt>
      <trkpt lat="49.33201" lon="5.08269">
        <ele>211.63</ele>
        <time>2021-07-25T16:42:16Z</time>
      </trkpt>
      <trkpt lat="49.33201" lon="5.08366">
        <ele>212.11</ele>
        <time>2021-07-25T16:42:25Z</time>
      </trkpt>
      <trkpt lat="49.33191" lon="5.08431">
        <ele>209.7</ele>
        <time>2021-07-25T16:42:31Z</time>
      </trkpt>
      <trkpt lat="49.33183" lon="5.08473">
        <ele>209.7</ele>
        <time>2021-07-25T16:42:36Z</time>
      </trkpt>
      <trkpt lat="49.33181" lon="5.08479">
        <ele>209.7</ele>
        <time>2021-07-25T16:42:37Z</time>
      </trkpt>
      <trkpt lat="49.33182" lon="5.08482">
        <ele>209.7</ele>
        <time>2021-07-25T16:42:38Z</time>
      </trkpt>
      <trkpt lat="49.33185" lon="5.08488">
        <ele>209.7</ele>
        <time>2021-07-25T16:42:39Z</time>
      </trkpt>
      <trkpt lat="49.33188" lon="5.08493">
        <ele>209.22</ele>
        <time>2021-07-25T16:42:40Z</time>
      </trkpt>
      <trkpt lat="49.33193" lon="5.08499">
        <ele>209.22</ele>
        <time>2021-07-25T16:42:41Z</time>
      </trkpt>
      <trkpt lat="49.33272" lon="5.08593">
        <ele>208.74</ele>
        <time>2021-07-25T16:42:52Z</time>
      </trkpt>
      <trkpt lat="49.33292" lon="5.08634">
        <ele>211.63</ele>
        <time>2021-07-25T16:42:55Z</time>
      </trkpt>
      <trkpt lat="49.33298" lon="5.08648">
        <ele>212.59</ele>
        <time>2021-07-25T16:42:56Z</time>
      </trkpt>
      <trkpt lat="49.33354" lon="5.08795">
        <ele>213.55</ele>
        <time>2021-07-25T16:43:06Z</time>
      </trkpt>
      <trkpt lat="49.33367" lon="5.08819">
        <ele>213.07</ele>
        <time>2021-07-25T16:43:07Z</time>
      </trkpt>
      <trkpt lat="49.3338" lon="5.0884">
        <ele>210.67</ele>
        <time>2021-07-25T16:43:10Z</time>
      </trkpt>
      <trkpt lat="49.33386" lon="5.08848">
        <ele>209.7</ele>
        <time>2021-07-25T16:43:11Z</time>
      </trkpt>
      <trkpt lat="49.33391" lon="5.08857">
        <ele>209.7</ele>
        <time>2021-07-25T16:43:12Z</time>
      </trkpt>
      <trkpt lat="49.33395" lon="5.08866">
        <ele>209.7</ele>
        <time>2021-07-25T16:43:13Z</time>
      </trkpt>
      <trkpt lat="49.33398" lon="5.08874">
        <ele>210.19</ele>
        <time>2021-07-25T16:43:14Z</time>
      </trkpt>
      <trkpt lat="49.33402" lon="5.08882">
        <ele>210.19</ele>
        <time>2021-07-25T16:43:15Z</time>
      </trkpt>
      <trkpt lat="49.33403" lon="5.08891">
        <ele>210.19</ele>
        <time>2021-07-25T16:43:16Z</time>
      </trkpt>
      <trkpt lat="49.33404" lon="5.08898">
        <ele>209.7</ele>
        <time>2021-07-25T16:43:17Z</time>
      </trkpt>
      <trkpt lat="49.33409" lon="5.08944">
        <ele>212.59</ele>
        <time>2021-07-25T16:43:29Z</time>
      </trkpt>
      <trkpt lat="49.33401" lon="5.09012">
        <ele>212.59</ele>
        <time>2021-07-25T16:43:43Z</time>
      </trkpt>
      <trkpt lat="49.33394" lon="5.09074">
        <ele>211.63</ele>
        <time>2021-07-25T16:43:58Z</time>
      </trkpt>
      <trkpt lat="49.33397" lon="5.09152">
        <ele>210.67</ele>
        <time>2021-07-25T16:44:13Z</time>
      </trkpt>
      <trkpt lat="49.33401" lon="5.09248">
        <ele>206.82</ele>
        <time>2021-07-25T16:44:30Z</time>
      </trkpt>
      <trkpt lat="49.33404" lon="5.09309">
        <ele>208.74</ele>
        <time>2021-07-25T16:44:43Z</time>
      </trkpt>
      <trkpt lat="49.33407" lon="5.09397">
        <ele>212.11</ele>
        <time>2021-07-25T16:44:59Z</time>
      </trkpt>
      <trkpt lat="49.33411" lon="5.09484">
        <ele>210.19</ele>
        <time>2021-07-25T16:45:14Z</time>
      </trkpt>
      <trkpt lat="49.33414" lon="5.09568">
        <ele>207.3</ele>
        <time>2021-07-25T16:45:27Z</time>
      </trkpt>
      <trkpt lat="49.33415" lon="5.09575">
        <ele>206.82</ele>
        <time>2021-07-25T16:45:28Z</time>
      </trkpt>
      <trkpt lat="49.33415" lon="5.09591">
        <ele>206.34</ele>
        <time>2021-07-25T16:45:29Z</time>
      </trkpt>
      <trkpt lat="49.33428" lon="5.09671">
        <ele>210.67</ele>
        <time>2021-07-25T16:45:42Z</time>
      </trkpt>
      <trkpt lat="49.33437" lon="5.09693">
        <ele>212.59</ele>
        <time>2021-07-25T16:45:51Z</time>
      </trkpt>
      <trkpt lat="49.33462" lon="5.09677">
        <ele>212.59</ele>
        <time>2021-07-25T16:46:05Z</time>
      </trkpt>
      <trkpt lat="49.33468" lon="5.09617">
        <ele>212.59</ele>
        <time>2021-07-25T16:46:17Z</time>
      </trkpt>
      <trkpt lat="49.33464" lon="5.09522">
        <ele>213.55</ele>
        <time>2021-07-25T16:46:31Z</time>
      </trkpt>
      <trkpt lat="49.33459" lon="5.094">
        <ele>215.95</ele>
        <time>2021-07-25T16:46:45Z</time>
      </trkpt>
      <trkpt lat="49.33455" lon="5.09312">
        <ele>220.28</ele>
        <time>2021-07-25T16:46:54Z</time>
      </trkpt>
      <trkpt lat="49.33455" lon="5.09303">
        <ele>220.28</ele>
        <time>2021-07-25T16:46:55Z</time>
      </trkpt>
      <trkpt lat="49.3345" lon="5.09189">
        <ele>221.72</ele>
        <time>2021-07-25T16:47:08Z</time>
      </trkpt>
      <trkpt lat="49.33444" lon="5.09064">
        <ele>219.8</ele>
        <time>2021-07-25T16:47:22Z</time>
      </trkpt>
      <trkpt lat="49.33444" lon="5.09057">
        <ele>218.84</ele>
        <time>2021-07-25T16:47:23Z</time>
      </trkpt>
      <trkpt lat="49.33443" lon="5.09049">
        <ele>217.88</ele>
        <time>2021-07-25T16:47:24Z</time>
      </trkpt>
      <trkpt lat="49.33442" lon="5.0904">
        <ele>216.91</ele>
        <time>2021-07-25T16:47:25Z</time>
      </trkpt>
      <trkpt lat="49.33438" lon="5.09026">
        <ele>215.47</ele>
        <time>2021-07-25T16:47:27Z</time>
      </trkpt>
      <trkpt lat="49.33422" lon="5.08991">
        <ele>214.99</ele>
        <time>2021-07-25T16:47:32Z</time>
      </trkpt>
      <trkpt lat="49.33419" lon="5.08985">
        <ele>214.99</ele>
        <time>2021-07-25T16:47:33Z</time>
      </trkpt>
      <trkpt lat="49.33413" lon="5.08972">
        <ele>214.03</ele>
        <time>2021-07-25T16:47:34Z</time>
      </trkpt>
      <trkpt lat="49.33413" lon="5.08972">
        <ele>214.03</ele>
        <time>2021-07-25T16:47:35Z</time>
      </trkpt>
      <trkpt lat="49.33412" lon="5.08964">
        <ele>214.03</ele>
        <time>2021-07-25T16:47:36Z</time>
      </trkpt>
      <trkpt lat="49.33391" lon="5.08858">
        <ele>212.59</ele>
        <time>2021-07-25T16:47:49Z</time>
      </trkpt>
      <trkpt lat="49.33388" lon="5.08851">
        <ele>212.59</ele>
        <time>2021-07-25T16:47:50Z</time>
      </trkpt>
      <trkpt lat="49.33383" lon="5.08845">
        <ele>213.07</ele>
        <time>2021-07-25T16:47:51Z</time>
      </trkpt>
      <trkpt lat="49.33336" lon="5.08745">
        <ele>213.55</ele>
        <time>2021-07-25T16:48:03Z</time>
      </trkpt>
      <trkpt lat="49.33281" lon="5.0861">
        <ele>212.11</ele>
        <time>2021-07-25T16:48:16Z</time>
      </trkpt>
      <trkpt lat="49.33276" lon="5.08599">
        <ele>211.15</ele>
        <time>2021-07-25T16:48:17Z</time>
      </trkpt>
      <trkpt lat="49.33189" lon="5.08494">
        <ele>209.22</ele>
        <time>2021-07-25T16:48:29Z</time>
      </trkpt>
      <trkpt lat="49.33185" lon="5.08489">
        <ele>208.74</ele>
        <time>2021-07-25T16:48:30Z</time>
      </trkpt>
      <trkpt lat="49.33183" lon="5.08484">
        <ele>208.74</ele>
        <time>2021-07-25T16:48:31Z</time>
      </trkpt>
      <trkpt lat="49.33181" lon="5.0848">
        <ele>208.74</ele>
        <time>2021-07-25T16:48:32Z</time>
      </trkpt>
      <trkpt lat="49.33183" lon="5.08473">
        <ele>208.74</ele>
        <time>2021-07-25T16:48:33Z</time>
      </trkpt>
      <trkpt lat="49.33184" lon="5.08465">
        <ele>208.26</ele>
        <time>2021-07-25T16:48:34Z</time>
      </trkpt>
      <trkpt lat="49.33186" lon="5.08456">
        <ele>208.74</ele>
        <time>2021-07-25T16:48:35Z</time>
      </trkpt>
      <trkpt lat="49.33202" lon="5.08341">
        <ele>211.63</ele>
        <time>2021-07-25T16:48:46Z</time>
      </trkpt>
      <trkpt lat="49.33201" lon="5.08248">
        <ele>214.51</ele>
        <time>2021-07-25T16:48:58Z</time>
      </trkpt>
      <trkpt lat="49.33206" lon="5.08242">
        <ele>214.51</ele>
        <time>2021-07-25T16:49:02Z</time>
      </trkpt>
      <trkpt lat="49.33209" lon="5.08242">
        <ele>214.51</ele>
        <time>2021-07-25T16:49:03Z</time>
      </trkpt>
      <trkpt lat="49.33213" lon="5.08242">
        <ele>214.51</ele>
        <time>2021-07-25T16:49:04Z</time>
      </trkpt>
      <trkpt lat="49.33217" lon="5.08242">
        <ele>214.51</ele>
        <time>2021-07-25T16:49:05Z</time>
      </trkpt>
      <trkpt lat="49.33222" lon="5.08242">
        <ele>214.51</ele>
        <time>2021-07-25T16:49:06Z</time>
      </trkpt>
      <trkpt lat="49.333" lon="5.08245">
        <ele>213.55</ele>
        <time>2021-07-25T16:49:17Z</time>
      </trkpt>
      <trkpt lat="49.33437" lon="5.0825">
        <ele>209.7</ele>
        <time>2021-07-25T16:49:31Z</time>
      </trkpt>
      <trkpt lat="49.33595" lon="5.08292">
        <ele>203.46</ele>
        <time>2021-07-25T16:49:45Z</time>
      </trkpt>
      <trkpt lat="49.33651" lon="5.08334">
        <ele>203.46</ele>
        <time>2021-07-25T16:49:52Z</time>
      </trkpt>
      <trkpt lat="49.33657" lon="5.08338">
        <ele>203.94</ele>
        <time>2021-07-25T16:49:53Z</time>
      </trkpt>
      <trkpt lat="49.33662" lon="5.08342">
        <ele>203.46</ele>
        <time>2021-07-25T16:49:54Z</time>
      </trkpt>
      <trkpt lat="49.33669" lon="5.08347">
        <ele>203.46</ele>
        <time>2021-07-25T16:50:02Z</time>
      </trkpt>
      <trkpt lat="49.33669" lon="5.08347">
        <ele>203.94</ele>
        <time>2021-07-25T16:55:16Z</time>
      </trkpt>
    </trkseg>
  </trk>
</gpx>